Strona główna
METAR-TAF:

METAR-TAF

Lotnisko :

Olsztyn, Polska

Port lotniczy Olsztyn-Mazury

Szerokość geograficzna: 53-28-55N, Długość geograficzna: 20-56-16E, wysokość: 141 m

Aktualna obserwacja pogody

Raport powstał 1 godzina i 27 minut temu, godzina 20:00 UTC
Cisza
Temperatura -18°C
Wilgotność 84%
Ciśnienie 1030 hPa
Widzialność 10 km lub więcej
Brak chmur poniżej 1500 m i brak chmur cumulonimbus

METAR: EPSY 252000Z 00000KT CAVOK M18/M20 Q1030

czas: 22:27 (21:27 UTC)

Prognoza

Raport powstał 3 godziny i 57 minut temu, godzina 17:30 UTC
Prognoza ważna od 25 godzina 18 UTC do 26 godzina 03 UTC
Wiatr 6 kt od północ
Widzialność 10 km lub więcej
Brak chmur poniżej 1500 m i brak chmur cumulonimbus

TAF: EPSY 251730Z 2518/2603 01006KT CAVOK

Obserwacja i prognoza pogody dla ponad 4000 lotnisk (raport METAR i TAF).

Dostępne stacje oznaczono żółtymi i czerwonymi punktami na mapie.

Najedź kursorem aby zobaczyć nazwę stacji.

Kliknij aby zobaczyć obserwacje i prognozy pogody.

Aby zmienić mapę: kliknij na zielony przycisk z czarnym krzyżykiem, aby powiększyć; na zielony przycisk z myślnikiem, aby pomniejszyć; na zielone strzałki, aby przejść do map sąsiednich.


METAR-TAF: